Time;durP1;ratioP1;P1;durP2;ratioP2;P2;SDS_P1;SDS_P2;PMS_P1;PMS_P2;Temp;Humidity;BMP_temperature;BMP_pressure;BME280_temperature;BME280_humidity;BME280_pressure;Samples;Min_cycle;Max_cycle;Signal;HPM_P1;HPM_P2
2022/03/03 00:00:09;;;;;;;;;;;;;;;5.45;100.00;99369.06;5082335;28;20289;-58
2022/03/03 00:02:34;;;;;;;;;;;;;;;5.48;100.00;99365.63;5073152;28;19917;-58
2022/03/03 00:05:00;;;;;;;;;;;;;;;5.28;98.88;99370.84;5071158;28;19913;-58
2022/03/03 00:07:25;;;;;;;;;;;;;;;5.21;100.00;99375.13;5071030;28;20374;-58
2022/03/03 00:09:50;;;;;;;;;;;;;;;4.95;100.00;99377.78;5045496;28;19916;-58
2022/03/03 00:12:16;;;;;;;;;;;;;;;5.01;100.00;99371.78;5052369;28;19913;-58
2022/03/03 00:14:41;;;;;;;;;;;;;;;5.08;100.00;99372.63;5085699;28;19916;-58
2022/03/03 00:17:07;;;;;;;;;;;;;;;5.13;100.00;99378.56;5057721;28;19913;-59
2022/03/03 00:19:32;;;;;;;;;;;;;;;5.00;100.00;99368.41;5059194;28;19948;-58
2022/03/03 00:21:58;;;;;;;;;;;;;;;5.09;100.00;99364.13;5070061;28;19971;-56
2022/03/03 00:24:23;;;;;;;;;;;;;;;4.98;100.00;99359.06;5078334;28;20266;-58
2022/03/03 00:26:48;;;;;;;;;;;;;;;4.90;100.00;99361.63;5084865;28;20444;-58
2022/03/03 00:29:14;;;;;;;;;;;;;;;5.32;100.00;99364.88;5070664;28;19912;-58
2022/03/03 00:31:39;;;;;;;;;;;;;;;5.48;98.18;99360.53;5052725;28;19917;-58
2022/03/03 00:34:04;;;;;;;;;;;;;;;5.21;99.99;99364.06;5070829;28;19919;-58
2022/03/03 00:36:30;;;;;;;;;;;;;;;5.18;100.00;99364.94;5070826;28;20362;-58
2022/03/03 00:38:55;;;;;;;;;;;;;;;5.15;100.00;99362.38;5070668;28;19958;-58
2022/03/03 00:41:20;;;;;;;;;;;;;;;4.73;100.00;99368.50;5071779;28;19921;-57
2022/03/03 00:43:46;;;;;;;;;;;;;;;4.68;100.00;99365.09;5073733;28;20375;-58
2022/03/03 00:46:11;;;;;;;;;;;;;;;4.63;100.00;99357.47;5070682;28;20051;-58
2022/03/03 00:48:36;;;;;;;;;;;;;;;4.71;100.00;99367.63;5070332;28;19921;-59
2022/03/03 00:51:06;;;;;;;;;;;;;;;4.56;100.00;99366.84;5083441;28;19919;-58
2022/03/03 00:53:32;;;;;;;;;;;;;;;4.87;100.00;99358.25;5085761;28;19913;-58
2022/03/03 00:55:57;;;;;;;;;;;;;;;4.58;100.00;99361.69;5070532;28;19919;-58
2022/03/03 00:58:23;;;;;;;;;;;;;;;4.18;100.00;99361.75;5070514;28;19999;-59
2022/03/03 01:00:48;;;;;;;;;;;;;;;4.64;100.00;99353.22;5070058;28;19920;-57
2022/03/03 01:03:13;;;;;;;;;;;;;;;5.24;100.00;99354.69;5070327;28;19958;-58
2022/03/03 01:05:38;;;;;;;;;;;;;;;4.50;100.00;99354.06;5084674;28;20281;-58
2022/03/03 01:08:08;;;;;;;;;;;;;;;4.68;100.00;99353.19;5072781;28;20369;-58
2022/03/03 01:10:34;;;;;;;;;;;;;;;4.73;100.00;99343.81;5078846;28;19935;-57
2022/03/03 01:12:59;;;;;;;;;;;;;;;4.76;100.00;99340.41;5070033;28;19913;-57
2022/03/03 01:15:24;;;;;;;;;;;;;;;4.60;100.00;99342.16;5070115;28;19912;-58
2022/03/03 01:17:49;;;;;;;;;;;;;;;4.73;100.00;99342.97;5070122;28;19916;-58
2022/03/03 01:20:17;;;;;;;;;;;;;;;4.84;100.00;99348.06;5070118;28;19913;-58
2022/03/03 01:22:43;;;;;;;;;;;;;;;4.86;100.00;99344.63;5071153;28;19920;-58
2022/03/03 01:25:08;;;;;;;;;;;;;;;4.44;100.00;99343.88;5076611;28;19999;-58
2022/03/03 01:27:33;;;;;;;;;;;;;;;4.54;100.00;99350.69;5076598;28;20286;-58
2022/03/03 01:29:59;;;;;;;;;;;;;;;4.51;100.00;99349.81;5066332;28;19962;-57
2022/03/03 01:32:24;;;;;;;;;;;;;;;4.44;100.00;99348.13;5083086;28;19912;-57
2022/03/03 01:34:50;;;;;;;;;;;;;;;4.57;100.00;99345.56;5076481;28;20007;-59
2022/03/03 01:37:15;;;;;;;;;;;;;;;4.16;100.00;99338.81;5076738;28;19999;-60
2022/03/03 01:39:40;;;;;;;;;;;;;;;4.25;100.00;99332.03;5076893;28;19916;-59
2022/03/03 01:42:06;;;;;;;;;;;;;;;4.45;100.00;99334.53;5076647;28;19951;-58
2022/03/03 01:44:31;;;;;;;;;;;;;;;4.51;100.00;99330.25;5078465;28;19990;-58
2022/03/03 01:46:57;;;;;;;;;;;;;;;4.24;100.00;99326.06;5096990;28;19912;-58
2022/03/03 01:49:22;;;;;;;;;;;;;;;4.34;100.00;99319.25;5078324;28;19943;-59
2022/03/03 01:51:48;;;;;;;;;;;;;;;4.22;100.00;99316.72;5076523;28;19918;-58
2022/03/03 01:54:13;;;;;;;;;;;;;;;4.11;100.00;99315.03;5076709;28;20454;-55
2022/03/03 01:56:41;;;;;;;;;;;;;;;4.12;100.00;99321.81;5076356;28;20288;-58
2022/03/03 01:59:07;;;;;;;;;;;;;;;4.12;100.00;99315.88;5079450;28;20419;-58
2022/03/03 02:01:32;;;;;;;;;;;;;;;4.13;100.00;99313.34;5076210;28;20019;-58
2022/03/03 02:03:57;;;;;;;;;;;;;;;4.13;100.00;99313.34;5076090;28;19913;-58
2022/03/03 02:06:23;;;;;;;;;;;;;;;4.11;100.00;99320.13;5087166;28;19982;-57
2022/03/03 02:08:48;;;;;;;;;;;;;;;3.97;100.00;99322.69;5094125;28;19916;-56
2022/03/03 02:11:14;;;;;;;;;;;;;;;4.25;100.00;99311.63;5078506;28;20285;-58
2022/03/03 02:13:39;;;;;;;;;;;;;;;4.08;100.00;99315.06;5076223;28;20007;-58
2022/03/03 02:16:04;;;;;;;;;;;;;;;3.66;100.00;99320.97;5076369;28;19912;-57
2022/03/03 02:18:30;;;;;;;;;;;;;;;3.80;100.00;99319.28;5058968;28;19912;-57
2022/03/03 02:20:55;;;;;;;;;;;;;;;3.94;100.00;99312.47;5076082;28;19912;-59
2022/03/03 02:23:20;;;;;;;;;;;;;;;4.04;100.00;99307.38;5076338;28;19981;-59
2022/03/03 02:25:46;;;;;;;;;;;;;;;3.95;100.00;99308.25;5095438;28;19965;-57
2022/03/03 02:28:11;;;;;;;;;;;;;;;3.57;100.00;99311.63;5089545;28;19932;-58
2022/03/03 02:30:39;;;;;;;;;;;;;;;3.60;100.00;99309.06;5079766;28;19947;-59
2022/03/03 02:33:05;;;;;;;;;;;;;;;3.51;100.00;99302.28;5076354;28;19913;-58
2022/03/03 02:35:30;;;;;;;;;;;;;;;3.84;100.00;99299.78;5073087;28;19913;-58
2022/03/03 02:37:55;;;;;;;;;;;;;;;3.89;100.00;99292.97;5074335;28;20345;-57
2022/03/03 02:40:21;;;;;;;;;;;;;;;3.33;100.00;99298.03;5067065;28;20369;-58
2022/03/03 02:42:54;;;;;;;;;;;;;;;3.25;100.00;99303.94;5072711;28;19916;-58
2022/03/03 02:45:20;;;;;;;;;;;;;;;3.10;100.00;99300.50;5084601;28;19916;-58
2022/03/03 02:47:48;;;;;;;;;;;;;;;2.93;100.00;99300.44;5092657;28;20398;-59
2022/03/03 02:50:14;;;;;;;;;;;;;;;3.07;100.00;99292.00;5093098;28;19912;-58
2022/03/03 02:52:39;;;;;;;;;;;;;;;3.19;100.00;99293.72;5079176;28;19919;-57
2022/03/03 02:55:05;;;;;;;;;;;;;;;2.84;100.00;99292.78;5074648;28;20503;-56
2022/03/03 03:00:14;;;;;;;;;;;;;;;2.57;100.00;99279.94;5072475;28;19918;-57
2022/03/03 03:02:40;;;;;;;;;;;;;;;2.55;100.00;99274.84;5072561;28;19916;-58
2022/03/03 03:05:05;;;;;;;;;;;;;;;2.65;100.00;99268.13;5072853;28;19919;-58
2022/03/03 03:07:30;;;;;;;;;;;;;;;2.80;100.00;99273.25;5075815;28;19965;-58
2022/03/03 03:09:56;;;;;;;;;;;;;;;2.69;100.00;99272.38;5074329;28;19912;-59
2022/03/03 03:12:21;;;;;;;;;;;;;;;2.66;100.00;99277.44;5083093;28;20010;-58
2022/03/03 03:14:46;;;;;;;;;;;;;;;2.77;100.00;99278.34;5081052;28;20417;-57
2022/03/03 03:17:11;;;;;;;;;;;;;;;2.48;100.00;99281.59;5072210;28;20281;-58
2022/03/03 03:19:37;;;;;;;;;;;;;;;2.41;100.00;99272.25;5085117;28;20024;-58
2022/03/03 03:22:03;;;;;;;;;;;;;;;2.96;100.00;99280.94;5087963;28;20569;-56
2022/03/03 03:24:28;;;;;;;;;;;;;;;2.59;100.00;99271.47;5078403;28;20003;-55
2022/03/03 03:26:54;;;;;;;;;;;;;;;2.51;100.00;99263.84;5090224;28;19966;-58
2022/03/03 03:29:19;;;;;;;;;;;;;;;3.00;100.00;99262.31;5079731;28;20020;-58
2022/03/03 03:31:44;;;;;;;;;;;;;;;2.85;100.00;99258.00;5071910;28;19912;-57
2022/03/03 03:34:09;;;;;;;;;;;;;;;2.80;100.00;99263.09;5071905;28;19936;-57
2022/03/03 03:36:35;;;;;;;;;;;;;;;2.94;100.00;99268.22;5053883;28;19943;-57
2022/03/03 03:39:00;;;;;;;;;;;;;;;2.41;100.00;99266.31;5071497;28;19916;-58
2022/03/03 03:41:25;;;;;;;;;;;;;;;2.62;100.00;99266.44;5081120;28;19916;-57
2022/03/03 03:43:51;;;;;;;;;;;;;;;3.01;100.00;99258.91;5091895;28;20282;-58
2022/03/03 03:46:16;;;;;;;;;;;;;;;3.22;100.00;99253.88;5078403;28;20070;-58
2022/03/03 03:48:41;;;;;;;;;;;;;;;2.96;100.00;99263.13;5071023;28;20515;-57
2022/03/03 03:51:06;;;;;;;;;;;;;;;3.24;100.00;99257.28;5071593;28;20334;-56
2022/03/03 03:53:32;;;;;;;;;;;;;;;3.25;100.00;99268.31;5071443;28;19924;-56
2022/03/03 03:55:57;;;;;;;;;;;;;;;2.67;100.00;99262.22;5074932;28;20311;-55
2022/03/03 03:58:22;;;;;;;;;;;;;;;2.70;100.00;99269.00;5080001;28;20380;-57
2022/03/03 04:00:48;;;;;;;;;;;;;;;2.54;100.00;99263.00;5073094;28;20031;-58
2022/03/03 04:03:13;;;;;;;;;;;;;;;2.69;100.00;99278.31;5082958;28;19931;-58
2022/03/03 04:05:38;;;;;;;;;;;;;;;2.71;100.00;99261.38;5071147;28;19966;-59
2022/03/03 04:08:04;;;;;;;;;;;;;;;2.97;100.00;99259.78;5071137;28;19913;-58
2022/03/03 04:10:29;;;;;;;;;;;;;;;3.25;100.00;99253.88;5071101;28;20393;-58
2022/03/03 04:12:55;;;;;;;;;;;;;;;3.10;100.00;99249.63;5071249;28;19920;-59
2022/03/03 04:15:20;;;;;;;;;;;;;;;3.23;100.00;99244.53;5071272;28;19912;-59
2022/03/03 04:17:45;;;;;;;;;;;;;;;3.75;100.00;99245.41;5060276;28;19916;-58
2022/03/03 04:20:11;;;;;;;;;;;;;;;3.27;100.00;99249.63;5073512;28;19947;-57
2022/03/03 04:22:36;;;;;;;;;;;;;;;2.65;100.00;99256.25;5090985;28;19916;-58
2022/03/03 04:25:02;;;;;;;;;;;;;;;2.77;100.00;99249.53;5089893;28;19966;-59
2022/03/03 04:27:28;;;;;;;;;;;;;;;2.81;100.00;99252.09;5086352;28;20367;-58
2022/03/03 04:29:53;;;;;;;;;;;;;;;3.09;100.00;99250.44;5070643;28;20313;-57
2022/03/03 04:32:18;;;;;;;;;;;;;;;2.75;100.00;99254.59;5049504;28;19913;-59
2022/03/03 04:34:43;;;;;;;;;;;;;;;2.28;100.00;99247.59;5069231;28;19912;-58
2022/03/03 04:37:09;;;;;;;;;;;;;;;1.95;100.00;99254.19;5070508;28;20300;-59
2022/03/03 04:39:34;;;;;;;;;;;;;;;2.35;100.00;99246.81;5070303;28;19912;-59
2022/03/03 04:48:05;;;;;;;;;;;;;;;1.93;100.00;99248.25;5082792;28;20653;-58
2022/03/03 04:50:30;;;;;;;;;;;;;;;1.68;100.00;99248.06;5090535;28;19912;-57
2022/03/03 04:52:56;;;;;;;;;;;;;;;1.96;100.00;99255.91;5080157;28;19913;-57
2022/03/03 04:55:21;;;;;;;;;;;;;;;1.95;100.00;99260.97;5069917;28;20377;-57
2022/03/03 04:57:46;;;;;;;;;;;;;;;2.03;100.00;99255.09;5069830;28;19999;-57
2022/03/03 05:00:12;;;;;;;;;;;;;;;2.10;100.00;99258.53;5070222;28;20412;-59
2022/03/03 05:02:37;;;;;;;;;;;;;;;1.92;100.00;99254.19;5070122;28;19923;-57
2022/03/03 05:05:03;;;;;;;;;;;;;;;1.78;100.00;99250.66;5070134;28;19920;-59
2022/03/03 05:07:28;;;;;;;;;;;;;;;1.79;100.00;99247.31;5070227;28;19956;-59
2022/03/03 05:09:54;;;;;;;;;;;;;;;1.93;100.00;99243.16;5070282;28;20003;-59
2022/03/03 05:12:19;;;;;;;;;;;;;;;2.03;100.00;99244.06;5070252;28;20374;-58
2022/03/03 05:14:44;;;;;;;;;;;;;;;2.37;100.00;99240.00;5070100;28;19919;-59
2022/03/03 05:17:09;;;;;;;;;;;;;;;2.19;100.00;99245.88;5070091;28;19912;-58
2022/03/03 05:19:35;;;;;;;;;;;;;;;2.03;100.00;99239.84;5059390;28;20460;-59
2022/03/03 05:22:00;;;;;;;;;;;;;;;1.66;100.00;99249.72;5069833;28;20374;-56
2022/03/03 05:24:25;;;;;;;;;;;;;;;1.55;100.00;99236.13;5069716;28;19912;-58
2022/03/03 05:26:51;;;;;;;;;;;;;;;2.18;100.00;99234.00;5070080;28;19966;-59
2022/03/03 05:29:16;;;;;;;;;;;;;;;2.24;100.00;99233.19;5069983;28;20385;-59
2022/03/03 05:31:42;;;;;;;;;;;;;;;2.17;100.00;99231.47;5069992;28;19971;-58
2022/03/03 05:34:08;;;;;;;;;;;;;;;2.30;100.00;99231.53;5069989;28;19912;-58
2022/03/03 05:36:34;;;;;;;;;;;;;;;1.90;100.00;99242.31;5069757;28;20289;-56
2022/03/03 05:39:00;;;;;;;;;;;;;;;1.98;100.00;99233.88;5069987;28;19913;-59
2022/03/03 05:41:25;;;;;;;;;;;;;;;1.82;100.00;99234.63;5052831;28;19923;-57
2022/03/03 05:43:51;;;;;;;;;;;;;;;1.90;100.00;99238.06;5070254;28;20408;-59
2022/03/03 05:46:18;;;;;;;;;;;;;;;2.10;100.00;99235.66;5070196;28;19916;-62
2022/03/03 05:48:43;;;;;;;;;;;;;;;2.13;100.00;99224.66;5036555;28;19924;-60
2022/03/03 05:51:10;;;;;;;;;;;;;;;1.85;100.00;99227.88;5035796;28;19943;-60
2022/03/03 05:53:35;;;;;;;;;;;;;;;1.68;100.00;99222.66;5073906;28;19927;-60
2022/03/03 05:56:04;;;;;;;;;;;;;;;1.62;100.00;99217.56;5034192;28;19916;-60
2022/03/03 05:58:34;;;;;;;;;;;;;;;1.71;100.00;99216.78;5029212;28;19921;-61
2022/03/03 06:00:59;;;;;;;;;;;;;;;1.73;100.00;99219.31;5041931;28;20011;-61
2022/03/03 06:03:25;;;;;;;;;;;;;;;1.99;100.00;99220.34;5051818;28;19995;-61
2022/03/03 06:05:51;;;;;;;;;;;;;;;2.25;100.00;99214.56;5053071;28;20259;-60
2022/03/03 06:08:18;;;;;;;;;;;;;;;2.08;100.00;99212.78;5073446;28;19916;-62
2022/03/03 06:10:53;;;;;;;;;;;;;;;2.23;100.00;99216.25;5044356;28;19955;-62
2022/03/03 06:13:25;;;;;;;;;;;;;;;2.00;100.00;99214.41;5075692;28;19990;-61
2022/03/03 06:15:52;;;;;;;;;;;;;;;2.29;100.00;99218.81;5074626;28;19959;-61
2022/03/03 06:18:24;;;;;;;;;;;;;;;2.03;100.00;99214.47;5073706;28;20018;-61
2022/03/03 06:20:50;;;;;;;;;;;;;;;1.74;100.00;99223.56;5077260;28;20255;-61
2022/03/03 06:23:15;;;;;;;;;;;;;;;1.67;100.00;99230.28;5074569;28;19927;-62
2022/03/03 06:25:41;;;;;;;;;;;;;;;1.65;100.00;99227.75;5044147;28;19916;-61
2022/03/03 06:28:06;;;;;;;;;;;;;;;1.82;100.00;99229.53;5073887;28;20027;-61
2022/03/03 06:30:32;;;;;;;;;;;;;;;2.11;100.00;99228.88;5075132;28;20374;-61
2022/03/03 06:32:57;;;;;;;;;;;;;;;2.06;100.00;99224.63;5074386;28;19924;-61
2022/03/03 06:35:23;;;;;;;;;;;;;;;1.98;100.00;99230.50;5074416;28;19924;-61
2022/03/03 06:37:48;;;;;;;;;;;;;;;1.96;100.00;99229.63;5043617;28;19916;-61
2022/03/03 06:40:13;;;;;;;;;;;;;;;1.78;100.00;99232.88;5075346;28;19917;-60
2022/03/03 06:42:39;;;;;;;;;;;;;;;2.16;100.00;99234.84;5059095;28;20409;-60
2022/03/03 06:45:04;;;;;;;;;;;;;;;2.58;100.00;99238.41;5076839;28;19959;-61
2022/03/03 06:47:30;;;;;;;;;;;;;;;3.06;100.00;99237.72;5075231;28;20400;-60
2022/03/03 06:49:55;;;;;;;;;;;;;;;2.86;100.00;99230.03;5075795;28;19916;-61
2022/03/03 06:52:21;;;;;;;;;;;;;;;2.76;100.00;99224.91;5070859;28;20007;-61
2022/03/03 06:54:51;;;;;;;;;;;;;;;2.58;100.00;99221.50;5075538;28;19975;-60
2022/03/03 06:57:17;;;;;;;;;;;;;;;2.54;100.00;99227.41;5074025;28;19924;-60
2022/03/03 06:59:42;;;;;;;;;;;;;;;2.58;100.00;99226.56;5059776;28;19924;-60
2022/03/03 07:02:10;;;;;;;;;;;;;;;2.34;100.00;99229.84;5055880;28;19924;-60
2022/03/03 07:04:35;;;;;;;;;;;;;;;2.74;100.00;99237.66;5073960;28;19923;-60
2022/03/03 07:07:03;;;;;;;;;;;;;;;3.24;100.00;99231.81;5072750;28;19925;-60
2022/03/03 07:09:29;;;;;;;;;;;;;;;3.66;100.00;99232.69;5072124;28;19947;-60
2022/03/03 07:18:22;;;;;;;;;;;;;;;3.76;100.00;99236.06;5070466;28;19959;-60
2022/03/03 07:20:50;;;;;;;;;;;;;;;3.57;100.00;99235.22;5073213;28;19931;-60
2022/03/03 07:23:36;;;;;;;;;;;;;;;3.85;100.00;99227.56;5071334;28;19924;-59
2022/03/03 07:26:02;;;;;;;;;;;;;;;4.21;100.00;99238.56;5071772;28;19923;-60
2022/03/03 07:28:28;;;;;;;;;;;;;;;4.48;100.00;99232.53;5076117;28;19932;-59
2022/03/03 07:30:53;;;;;;;;;;;;;;;4.85;100.00;99233.19;5076239;28;19916;-59
2022/03/03 07:33:24;;;;;;;;;;;;;;;5.07;100.00;99236.50;5043648;28;20362;-59
2022/03/03 07:35:52;;;;;;;;;;;;;;;5.76;100.00;99227.47;5053731;28;19923;-60
2022/03/03 07:38:23;;;;;;;;;;;;;;;6.18;100.00;99223.69;5073384;28;20362;-60
2022/03/03 07:40:49;;;;;;;;;;;;;;;5.81;100.00;99229.09;5052703;28;20404;-61
2022/03/03 07:43:14;;;;;;;;;;;;;;;6.57;100.00;99221.53;5074042;28;19963;-61
2022/03/03 07:45:40;;;;;;;;;;;;;;;6.76;100.00;99221.31;5074057;28;19973;-60
2022/03/03 07:48:06;;;;;;;;;;;;;;;6.43;100.00;99228.50;5036214;28;19985;-60
2022/03/03 07:50:39;;;;;;;;;;;;;;;6.36;100.00;99226.88;5070023;28;19928;-60
2022/03/03 07:59:13;;;;;;;;;;;;;;;6.20;100.00;99215.97;5070575;28;19926;-60
2022/03/03 08:01:38;;;;;;;;;;;;;;;7.04;100.00;99214.94;5073287;28;19928;-61
2022/03/03 08:04:04;;;;;;;;;;;;;;;6.87;100.00;99217.72;5058230;28;19927;-61
2022/03/03 08:06:30;;;;;;;;;;;;;;;6.98;100.00;99217.59;5072777;28;19978;-60
2022/03/03 08:08:55;;;;;;;;;;;;;;;6.74;100.00;99213.63;5055366;28;20274;-60
2022/03/03 08:11:20;;;;;;;;;;;;;;;6.83;100.00;99207.56;5072794;28;19924;-60
2022/03/03 08:13:46;;;;;;;;;;;;;;;6.56;100.00;99204.47;5072008;28;20024;-60
2022/03/03 08:16:14;;;;;;;;;;;;;;;7.17;100.00;99195.13;5072898;28;20326;-60
2022/03/03 08:18:40;;;;;;;;;;;;;;;7.09;100.00;99200.38;5071794;28;19920;-61
2022/03/03 08:21:06;;;;;;;;;;;;;;;7.05;100.00;99191.03;5072544;28;20219;-60
2022/03/03 08:23:31;;;;;;;;;;;;;;;7.41;100.00;99191.34;5072150;28;20358;-60
2022/03/03 08:25:57;;;;;;;;;;;;;;;7.97;100.00;99193.78;5074493;28;20377;-60
2022/03/03 08:28:25;;;;;;;;;;;;;;;8.60;100.00;99195.16;5071155;28;20290;-61
2022/03/03 08:31:01;;;;;;;;;;;;;;;8.59;96.74;99202.00;5086137;22;19935;-84
2022/03/03 08:33:32;;;;;;;;;;;;;;;8.43;95.38;99198.06;5053333;28;20011;-87
2022/03/03 08:35:59;;;;;;;;;;;;;;;8.94;92.76;99195.28;5075334;28;19912;-85
2022/03/03 08:38:34;;;;;;;;;;;;;;;8.10;92.20;99205.50;5079241;28;20306;-85
2022/03/03 08:41:00;;;;;;;;;;;;;;;8.20;93.61;99203.63;5059688;28;19952;-84
2022/03/03 08:43:26;;;;;;;;;;;;;;;8.18;94.21;99200.22;5009919;28;19921;-84
2022/03/03 08:45:51;;;;;;;;;;;;;;;8.89;94.27;99191.94;5027494;28;19959;-83
2022/03/03 08:48:16;;;;;;;;;;;;;;;9.42;90.74;99182.16;5010840;28;19928;-83
2022/03/03 08:50:42;;;;;;;;;;;;;;;10.42;88.01;99178.69;5024616;28;19917;-82
2022/03/03 08:53:08;;;;;;;;;;;;;;;9.53;93.47;99187.03;5024806;28;19920;-83
2022/03/03 08:55:34;;;;;;;;;;;;;;;9.19;95.09;99193.00;5016687;28;19921;-83
2022/03/03 08:57:59;;;;;;;;;;;;;;;9.26;93.18;99195.41;5021539;28;19920;-83
2022/03/03 09:00:25;;;;;;;;;;;;;;;9.41;94.66;99195.03;5056448;28;19919;-83
2022/03/03 09:02:51;;;;;;;;;;;;;;;9.71;93.07;99198.56;5008782;28;20318;-84
2022/03/03 09:05:16;;;;;;;;;;;;;;;8.17;93.43;99209.66;5000161;28;20008;-85
2022/03/03 09:07:42;;;;;;;;;;;;;;;9.04;92.80;99203.63;5025334;28;19917;-84
2022/03/03 09:10:07;;;;;;;;;;;;;;;9.11;88.86;99199.19;5042915;28;19982;-83
2022/03/03 09:12:33;;;;;;;;;;;;;;;8.91;90.69;99204.75;5026226;28;19921;-84
2022/03/03 09:14:58;;;;;;;;;;;;;;;9.11;86.46;99205.16;5010797;28;19912;-83
2022/03/03 09:17:23;;;;;;;;;;;;;;;9.55;83.57;99205.81;5010892;28;19916;-83
2022/03/03 09:19:49;;;;;;;;;;;;;;;9.60;83.10;99206.59;5026640;28;19935;-83
2022/03/03 09:22:14;;;;;;;;;;;;;;;10.39;83.62;99196.81;5025550;28;19917;-84
2022/03/03 09:24:39;;;;;;;;;;;;;;;9.56;83.33;99207.53;5023791;28;19916;-84
2022/03/03 09:27:05;;;;;;;;;;;;;;;9.45;81.80;99199.25;5028178;28;19913;-84
2022/03/03 09:29:33;;;;;;;;;;;;;;;8.91;81.92;99203.03;5029430;28;19960;-87
2022/03/03 09:31:59;;;;;;;;;;;;;;;8.95;90.28;99211.53;5016413;28;19920;-85
2022/03/03 09:34:24;;;;;;;;;;;;;;;8.76;93.77;99209.34;5000569;28;19921;-86
2022/03/03 09:36:49;;;;;;;;;;;;;;;8.81;94.39;99203.28;5022024;28;20458;-86
2022/03/03 09:39:15;;;;;;;;;;;;;;;9.25;95.79;99192.00;5030482;28;19917;-85
2022/03/03 09:41:40;;;;;;;;;;;;;;;9.56;96.85;99194.69;5010059;28;19928;-83
2022/03/03 09:44:05;;;;;;;;;;;;;;;9.83;98.40;99182.00;5012699;28;20298;-83
2022/03/03 09:46:30;;;;;;;;;;;;;;;10.16;96.82;99184.56;5033138;28;20393;-83
2022/03/03 09:48:56;;;;;;;;;;;;;;;10.04;95.99;99184.00;5033836;28;19917;-84
2022/03/03 09:51:21;;;;;;;;;;;;;;;10.26;90.73;99180.81;5032988;28;19979;-84
2022/03/03 09:53:49;;;;;;;;;;;;;;;9.79;94.25;99182.97;5016976;28;19928;-83
2022/03/03 09:56:15;;;;;;;;;;;;;;;9.80;93.96;99182.06;5018289;28;20300;-84
2022/03/03 09:58:40;;;;;;;;;;;;;;;10.17;97.32;99178.50;5013897;28;20110;-82
2022/03/03 10:01:06;;;;;;;;;;;;;;;10.55;96.91;99168.91;5017152;28;19931;-82
2022/03/03 10:03:35;;;;;;;;;;;;;;;10.38;90.86;99172.81;5015970;28;19940;-84
2022/03/03 10:06:00;;;;;;;;;;;;;;;10.81;92.40;99171.56;5032746;28;20377;-84
2022/03/03 10:08:27;;;;;;;;;;;;;;;11.01;90.52;99168.34;5031959;28;19913;-83
2022/03/03 10:10:57;;;;;;;;;;;;;;;10.60;89.70;99167.88;5033131;28;19970;-82
2022/03/03 10:13:22;;;;;;;;;;;;;;;10.51;91.11;99173.28;5041374;28;19917;-83
2022/03/03 10:15:55;;;;;;;;;;;;;;;11.43;93.15;99179.94;5011336;28;19935;-82
2022/03/03 10:18:20;;;;;;;;;;;;;;;10.56;88.32;99176.59;5050702;28;20003;-81
2022/03/03 10:20:52;;;;;;;;;;;;;;;11.34;86.93;99173.34;5026718;28;19959;-82
2022/03/03 10:23:18;;;;;;;;;;;;;;;11.27;84.43;99172.69;5050231;28;19964;-82
2022/03/03 10:25:44;;;;;;;;;;;;;;;10.94;74.11;99178.91;5026893;28;20294;-85
2022/03/03 10:28:11;;;;;;;;;;;;;;;11.06;73.22;99170.78;5029961;28;19913;-85
2022/03/03 10:30:52;;;;;;;;;;;;;;;11.29;58.40;99157.19;5015379;28;19925;-85
2022/03/03 10:33:19;;;;;;;;;;;;;;;11.16;55.39;99159.31;5064952;28;20379;-85
2022/03/03 10:36:03;;;;;;;;;;;;;;;11.29;58.16;99158.03;5010418;28;19917;-83
2022/03/03 10:38:28;;;;;;;;;;;;;;;10.93;55.22;99169.50;5050331;28;19916;-82
2022/03/03 10:40:54;;;;;;;;;;;;;;;11.04;53.66;99170.00;5008463;28;20347;-82
2022/03/03 10:43:19;;;;;;;;;;;;;;;11.32;51.82;99166.56;5028066;28;20068;-83
2022/03/03 10:45:58;;;;;;;;;;;;;;;12.71;56.13;99166.00;5029393;28;19931;-83
2022/03/03 10:48:24;;;;;;;;;;;;;;;13.34;53.06;99156.66;5043292;28;19960;-82
2022/03/03 10:50:50;;;;;;;;;;;;;;;13.05;50.66;99159.53;5011327;28;19918;-83
2022/03/03 10:53:16;;;;;;;;;;;;;;;12.45;49.15;99160.06;5030468;28;19931;-83
2022/03/03 10:55:58;;;;;;;;;;;;;;;12.01;46.09;99165.09;5012689;28;19917;-82
2022/03/03 10:58:23;;;;;;;;;;;;;;;12.47;44.70;99173.75;5030770;28;20306;-82
2022/03/03 11:00:48;;;;;;;;;;;;;;;12.97;46.95;99163.22;5030564;28;19912;-83
2022/03/03 11:03:13;;;;;;;;;;;;;;;13.58;46.68;99169.47;5029601;28;19980;-84
2022/03/03 11:05:39;;;;;;;;;;;;;;;12.88;43.93;99160.16;5011497;28;20031;-82
2022/03/03 11:08:04;;;;;;;;;;;;;;;13.31;49.09;99164.50;5013576;28;19916;-83
2022/03/03 11:10:30;;;;;;;;;;;;;;;13.65;45.70;99157.13;5011706;28;20047;-84
2022/03/03 11:12:56;;;;;;;;;;;;;;;14.67;48.69;99158.72;5011672;28;20470;-83
2022/03/03 11:15:22;;;;;;;;;;;;;;;13.75;42.33;99150.63;5028550;28;19913;-82
2022/03/03 11:17:48;;;;;;;;;;;;;;;13.15;46.07;99160.81;5023516;28;20310;-84
2022/03/03 11:20:15;;;;;;;;;;;;;;;13.08;44.87;99147.31;5056918;28;20429;-86
2022/03/03 11:22:41;;;;;;;;;;;;;;;13.46;43.94;99151.88;5025185;28;19921;-84
2022/03/03 11:25:08;;;;;;;;;;;;;;;14.04;44.03;99145.94;5027672;28;19925;-83
2022/03/03 11:27:37;;;;;;;;;;;;;;;14.26;49.58;99154.47;5028705;28;19956;-83
2022/03/03 11:30:16;;;;;;;;;;;;;;;14.46;43.37;99139.75;5042530;28;20288;-84
2022/03/03 11:32:42;;;;;;;;;;;;;;;14.56;43.88;99149.66;5005555;28;20262;-84
2022/03/03 11:35:08;;;;;;;;;;;;;;;14.23;38.09;99145.06;5007030;28;19921;-83
2022/03/03 11:37:43;;;;;;;;;;;;;;;13.91;45.96;99149.09;5022171;28;19933;-84
2022/03/03 11:40:11;;;;;;;;;;;;;;;13.76;43.51;99150.56;4997436;28;19917;-83
2022/03/03 11:42:37;;;;;;;;;;;;;;;15.20;41.17;99137.16;5010851;28;20570;-83
2022/03/03 11:45:06;;;;;;;;;;;;;;;15.06;43.72;99136.06;5027059;28;19913;-83
2022/03/03 11:47:32;;;;;;;;;;;;;;;14.71;41.51;99139.47;5044674;28;20402;-83
2022/03/03 11:49:57;;;;;;;;;;;;;;;13.86;37.88;99134.66;5027473;28;19949;-86
2022/03/03 11:52:22;;;;;;;;;;;;;;;13.68;38.45;99126.75;5025328;28;19963;-85
2022/03/03 11:54:48;;;;;;;;;;;;;;;13.71;38.20;99126.63;5011233;28;19921;-83
2022/03/03 11:57:13;;;;;;;;;;;;;;;13.99;38.71;99120.25;4998847;28;19967;-83
2022/03/03 11:59:40;;;;;;;;;;;;;;;13.87;38.13;99123.41;5030214;28;19917;-83
2022/03/03 12:02:06;;;;;;;;;;;;;;;13.38;36.30;99114.19;5042953;28;19980;-83
2022/03/03 12:04:31;;;;;;;;;;;;;;;14.75;40.48;99120.28;5008240;28;20351;-84
2022/03/03 12:06:56;;;;;;;;;;;;;;;14.76;39.67;99117.63;5022632;28;19924;-83
2022/03/03 12:09:26;;;;;;;;;;;;;;;15.26;39.14;99116.13;5008494;28;19921;-83
2022/03/03 12:12:10;;;;;;;;;;;;;;;14.61;38.23;99110.56;5021555;28;19925;-84
2022/03/03 12:14:37;;;;;;;;;;;;;;;13.44;38.08;99107.13;5039042;28;19921;-83
2022/03/03 12:17:21;;;;;;;;;;;;;;;14.09;37.11;99103.38;5019498;28;19920;-82
2022/03/03 12:19:46;;;;;;;;;;;;;;;14.10;38.39;99107.69;5037146;28;19967;-84
2022/03/03 12:22:25;;;;;;;;;;;;;;;14.90;37.62;99096.22;4992742;28;20301;-83
2022/03/03 12:24:50;;;;;;;;;;;;;;;14.94;39.47;99102.09;5034836;28;19921;-83
2022/03/03 12:27:16;;;;;;;;;;;;;;;13.83;41.32;99114.06;5021090;28;20456;-84
2022/03/03 12:29:48;;;;;;;;;;;;;;;13.06;38.67;99104.31;5018422;28;19921;-84
2022/03/03 12:32:33;;;;;;;;;;;;;;;14.42;41.05;99103.63;5041382;28;19932;-83
2022/03/03 12:35:09;;;;;;;;;;;;;;;13.70;39.45;99098.22;5026359;28;20410;-83
2022/03/03 12:37:39;;;;;;;;;;;;;;;13.37;40.40;99096.19;5007600;28;20314;-83
2022/03/03 12:40:05;;;;;;;;;;;;;;;13.30;40.13;99098.19;5026867;28;19913;-86
2022/03/03 12:42:32;;;;;;;;;;;;;;;13.36;42.32;99095.34;5048322;28;19928;-85
2022/03/03 12:44:58;;;;;;;;;;;;;;;13.72;41.43;99092.06;5027827;28;19916;-85
2022/03/03 12:47:31;;;;;;;;;;;;;;;13.80;43.97;99089.16;4996333;28;19924;-85
2022/03/03 12:49:56;;;;;;;;;;;;;;;13.02;42.33;99095.00;5042059;28;19963;-86
2022/03/03 12:52:23;;;;;;;;;;;;;;;14.64;44.65;99084.50;4996489;28;19971;-85
2022/03/03 12:54:52;;;;;;;;;;;;;;;13.87;43.60;99089.75;4996217;28;19921;-84
2022/03/03 12:57:17;;;;;;;;;;;;;;;14.26;46.74;99096.63;5017185;28;19920;-84
2022/03/03 12:59:46;;;;;;;;;;;;;;;13.56;44.32;99091.06;4999008;28;19966;-84
2022/03/03 13:02:11;;;;;;;;;;;;;;;14.22;49.45;99091.56;5009164;28;19983;-83
2022/03/03 13:04:46;;;;;;;;;;;;;;;13.55;47.10;99094.56;5021699;28;19921;-83